sensor_id;sensor_type;location;lat;lon;timestamp;temperature;humidity
28069;DHT22;15382;47.578;8.086;2022-07-06T00:07:57;15.90;99.90
28069;DHT22;15382;47.578;8.086;2022-07-06T00:17:58;15.60;99.90
28069;DHT22;15382;47.578;8.086;2022-07-06T00:27:59;15.30;99.90
28069;DHT22;15382;47.578;8.086;2022-07-06T00:38:00;15.30;99.90
28069;DHT22;15382;47.578;8.086;2022-07-06T00:48:01;15.10;99.90
28069;DHT22;15382;47.578;8.086;2022-07-06T00:58:04;14.90;99.90
28069;DHT22;15382;47.578;8.086;2022-07-06T01:08:05;14.60;99.90
28069;DHT22;15382;47.578;8.086;2022-07-06T01:18:06;14.50;99.90
28069;DHT22;15382;47.578;8.086;2022-07-06T01:28:10;14.70;99.90
28069;DHT22;15382;47.578;8.086;2022-07-06T01:38:10;14.90;99.90
28069;DHT22;15382;47.578;8.086;2022-07-06T01:48:11;15.00;99.90
28069;DHT22;15382;47.578;8.086;2022-07-06T01:58:12;14.70;99.90
28069;DHT22;15382;47.578;8.086;2022-07-06T02:08:13;14.70;99.90
28069;DHT22;15382;47.578;8.086;2022-07-06T02:18:14;14.50;99.90
28069;DHT22;15382;47.578;8.086;2022-07-06T02:28:15;14.40;99.90
28069;DHT22;15382;47.578;8.086;2022-07-06T02:38:16;14.10;99.90
28069;DHT22;15382;47.578;8.086;2022-07-06T02:48:17;13.90;99.90
28069;DHT22;15382;47.578;8.086;2022-07-06T02:58:20;13.90;99.90
28069;DHT22;15382;47.578;8.086;2022-07-06T03:08:21;13.90;99.90
28069;DHT22;15382;47.578;8.086;2022-07-06T03:18:23;13.80;99.90
28069;DHT22;15382;47.578;8.086;2022-07-06T03:28:25;13.50;99.90
28069;DHT22;15382;47.578;8.086;2022-07-06T03:38:26;13.40;99.90
28069;DHT22;15382;47.578;8.086;2022-07-06T03:48:27;13.50;99.90
28069;DHT22;15382;47.578;8.086;2022-07-06T03:58:28;13.10;99.90
28069;DHT22;15382;47.578;8.086;2022-07-06T04:08:29;13.00;99.90
28069;DHT22;15382;47.578;8.086;2022-07-06T04:18:32;12.90;99.90
28069;DHT22;15382;47.578;8.086;2022-07-06T04:28:34;13.00;99.90
28069;DHT22;15382;47.578;8.086;2022-07-06T04:38:35;13.20;99.90
28069;DHT22;15382;47.578;8.086;2022-07-06T04:48:39;13.60;99.90
28069;DHT22;15382;47.578;8.086;2022-07-06T04:58:43;13.80;99.90
28069;DHT22;15382;47.578;8.086;2022-07-06T05:08:48;14.30;99.90
28069;DHT22;15382;47.578;8.086;2022-07-06T05:18:49;14.60;99.90
28069;DHT22;15382;47.578;8.086;2022-07-06T05:28:50;14.90;99.90
28069;DHT22;15382;47.578;8.086;2022-07-06T05:38:55;15.40;99.90
28069;DHT22;15382;47.578;8.086;2022-07-06T05:48:57;15.80;99.90
28069;DHT22;15382;47.578;8.086;2022-07-06T05:59:16;16.10;99.90
28069;DHT22;15382;47.578;8.086;2022-07-06T06:09:18;16.10;99.90
28069;DHT22;15382;47.578;8.086;2022-07-06T06:19:19;16.60;99.90
28069;DHT22;15382;47.578;8.086;2022-07-06T06:29:20;16.90;99.90
28069;DHT22;15382;47.578;8.086;2022-07-06T06:39:20;17.30;99.90
28069;DHT22;15382;47.578;8.086;2022-07-06T06:49:21;18.20;99.90
28069;DHT22;15382;47.578;8.086;2022-07-06T06:59:22;18.50;99.90
28069;DHT22;15382;47.578;8.086;2022-07-06T07:09:23;18.70;99.90
28069;DHT22;15382;47.578;8.086;2022-07-06T07:19:24;18.60;99.90
28069;DHT22;15382;47.578;8.086;2022-07-06T07:29:25;18.40;99.90
28069;DHT22;15382;47.578;8.086;2022-07-06T07:39:25;19.40;99.90
28069;DHT22;15382;47.578;8.086;2022-07-06T07:49:26;19.70;99.90
28069;DHT22;15382;47.578;8.086;2022-07-06T07:59:27;19.80;99.90
28069;DHT22;15382;47.578;8.086;2022-07-06T08:09:28;20.70;99.90
28069;DHT22;15382;47.578;8.086;2022-07-06T08:19:29;20.30;99.90
28069;DHT22;15382;47.578;8.086;2022-07-06T08:29:31;20.50;99.90
28069;DHT22;15382;47.578;8.086;2022-07-06T08:39:32;21.90;99.90
28069;DHT22;15382;47.578;8.086;2022-07-06T08:49:34;21.20;99.90
28069;DHT22;15382;47.578;8.086;2022-07-06T08:59:38;21.60;99.90
28069;DHT22;15382;47.578;8.086;2022-07-06T09:09:40;22.50;99.90
28069;DHT22;15382;47.578;8.086;2022-07-06T09:19:41;22.90;99.90
28069;DHT22;15382;47.578;8.086;2022-07-06T09:29:45;22.70;99.90
28069;DHT22;15382;47.578;8.086;2022-07-06T09:39:46;23.20;99.90
28069;DHT22;15382;47.578;8.086;2022-07-06T09:49:47;23.60;99.90
28069;DHT22;15382;47.578;8.086;2022-07-06T09:59:51;23.70;99.90
28069;DHT22;15382;47.578;8.086;2022-07-06T10:09:52;23.60;99.90
28069;DHT22;15382;47.578;8.086;2022-07-06T10:19:54;24.30;99.90
28069;DHT22;15382;47.578;8.086;2022-07-06T10:29:56;24.50;99.90
28069;DHT22;15382;47.578;8.086;2022-07-06T10:39:57;24.60;99.90
28069;DHT22;15382;47.578;8.086;2022-07-06T10:50:18;25.20;99.90
28069;DHT22;15382;47.578;8.086;2022-07-06T11:00:19;25.40;99.90
28069;DHT22;15382;47.578;8.086;2022-07-06T11:10:22;25.80;99.90
28069;DHT22;15382;47.578;8.086;2022-07-06T11:20:23;27.10;99.90
28069;DHT22;15382;47.578;8.086;2022-07-06T11:30:25;26.70;99.90
28069;DHT22;15382;47.578;8.086;2022-07-06T11:40:25;26.80;99.90
28069;DHT22;15382;47.578;8.086;2022-07-06T11:50:26;27.40;99.90
28069;DHT22;15382;47.578;8.086;2022-07-06T12:00:27;26.70;99.90
28069;DHT22;15382;47.578;8.086;2022-07-06T12:10:33;27.10;99.90
28069;DHT22;15382;47.578;8.086;2022-07-06T12:20:38;26.50;99.90
28069;DHT22;15382;47.578;8.086;2022-07-06T12:30:45;26.90;99.90
28069;DHT22;15382;47.578;8.086;2022-07-06T12:40:46;26.50;99.90
28069;DHT22;15382;47.578;8.086;2022-07-06T12:50:47;27.30;99.90
28069;DHT22;15382;47.578;8.086;2022-07-06T13:00:48;27.30;99.90
28069;DHT22;15382;47.578;8.086;2022-07-06T13:10:49;27.10;99.90
28069;DHT22;15382;47.578;8.086;2022-07-06T13:20:50;27.30;99.90
28069;DHT22;15382;47.578;8.086;2022-07-06T13:30:50;27.20;99.90
28069;DHT22;15382;47.578;8.086;2022-07-06T13:40:51;26.90;99.90
28069;DHT22;15382;47.578;8.086;2022-07-06T13:50:52;26.90;99.90
28069;DHT22;15382;47.578;8.086;2022-07-06T14:00:53;26.20;99.90
28069;DHT22;15382;47.578;8.086;2022-07-06T14:10:54;26.30;99.90
28069;DHT22;15382;47.578;8.086;2022-07-06T14:20:55;26.30;99.90
28069;DHT22;15382;47.578;8.086;2022-07-06T14:30:56;26.30;99.90
28069;DHT22;15382;47.578;8.086;2022-07-06T14:40:57;26.60;99.90
28069;DHT22;15382;47.578;8.086;2022-07-06T14:50:58;27.00;99.90
28069;DHT22;15382;47.578;8.086;2022-07-06T15:00:59;26.80;99.90
28069;DHT22;15382;47.578;8.086;2022-07-06T15:11:00;27.20;99.90
28069;DHT22;15382;47.578;8.086;2022-07-06T15:21:00;27.50;99.90
28069;DHT22;15382;47.578;8.086;2022-07-06T15:31:02;27.20;99.90
28069;DHT22;15382;47.578;8.086;2022-07-06T15:41:03;27.10;99.90
28069;DHT22;15382;47.578;8.086;2022-07-06T15:51:04;27.10;99.90
28069;DHT22;15382;47.578;8.086;2022-07-06T16:01:05;26.60;99.90
28069;DHT22;15382;47.578;8.086;2022-07-06T16:11:06;26.50;99.90
28069;DHT22;15382;47.578;8.086;2022-07-06T16:21:07;26.40;99.90
28069;DHT22;15382;47.578;8.086;2022-07-06T16:31:08;26.10;99.90
28069;DHT22;15382;47.578;8.086;2022-07-06T16:41:09;25.80;99.90
28069;DHT22;15382;47.578;8.086;2022-07-06T16:51:10;25.90;99.90
28069;DHT22;15382;47.578;8.086;2022-07-06T17:01:11;25.20;99.90
28069;DHT22;15382;47.578;8.086;2022-07-06T17:11:12;24.80;99.90
28069;DHT22;15382;47.578;8.086;2022-07-06T17:21:13;24.20;99.90
28069;DHT22;15382;47.578;8.086;2022-07-06T17:31:14;23.50;99.90
28069;DHT22;15382;47.578;8.086;2022-07-06T17:41:15;23.30;99.90
28069;DHT22;15382;47.578;8.086;2022-07-06T17:51:16;23.20;99.90
28069;DHT22;15382;47.578;8.086;2022-07-06T18:01:17;23.10;99.90
28069;DHT22;15382;47.578;8.086;2022-07-06T18:11:18;24.00;99.90
28069;DHT22;15382;47.578;8.086;2022-07-06T18:21:18;24.20;99.90
28069;DHT22;15382;47.578;8.086;2022-07-06T18:31:19;23.50;99.90
28069;DHT22;15382;47.578;8.086;2022-07-06T18:41:20;22.20;99.90
28069;DHT22;15382;47.578;8.086;2022-07-06T18:51:21;21.70;99.90
28069;DHT22;15382;47.578;8.086;2022-07-06T19:01:22;21.40;99.90
28069;DHT22;15382;47.578;8.086;2022-07-06T19:11:23;21.10;99.90
28069;DHT22;15382;47.578;8.086;2022-07-06T19:21:24;20.90;99.90
28069;DHT22;15382;47.578;8.086;2022-07-06T19:31:24;20.60;99.90
28069;DHT22;15382;47.578;8.086;2022-07-06T19:41:25;20.30;99.90
28069;DHT22;15382;47.578;8.086;2022-07-06T19:51:26;20.10;99.90
28069;DHT22;15382;47.578;8.086;2022-07-06T20:01:27;20.20;99.90
28069;DHT22;15382;47.578;8.086;2022-07-06T20:11:28;20.10;99.90
28069;DHT22;15382;47.578;8.086;2022-07-06T20:21:30;19.80;99.90
28069;DHT22;15382;47.578;8.086;2022-07-06T20:31:30;19.60;99.90
28069;DHT22;15382;47.578;8.086;2022-07-06T20:41:31;19.00;99.90
28069;DHT22;15382;47.578;8.086;2022-07-06T20:51:32;18.50;99.90
28069;DHT22;15382;47.578;8.086;2022-07-06T21:01:34;18.20;99.90
28069;DHT22;15382;47.578;8.086;2022-07-06T21:11:35;18.20;99.90
28069;DHT22;15382;47.578;8.086;2022-07-06T21:21:36;18.30;99.90
28069;DHT22;15382;47.578;8.086;2022-07-06T21:31:37;17.60;99.90
28069;DHT22;15382;47.578;8.086;2022-07-06T21:41:40;17.20;99.90
28069;DHT22;15382;47.578;8.086;2022-07-06T21:51:41;17.30;99.90
28069;DHT22;15382;47.578;8.086;2022-07-06T22:01:42;16.40;99.90
28069;DHT22;15382;47.578;8.086;2022-07-06T22:11:43;16.90;99.90
28069;DHT22;15382;47.578;8.086;2022-07-06T22:21:44;16.20;99.90
28069;DHT22;15382;47.578;8.086;2022-07-06T22:31:45;16.00;99.90
28069;DHT22;15382;47.578;8.086;2022-07-06T22:41:46;15.60;99.90
28069;DHT22;15382;47.578;8.086;2022-07-06T22:51:47;15.50;99.90
28069;DHT22;15382;47.578;8.086;2022-07-06T23:01:48;15.10;99.90
28069;DHT22;15382;47.578;8.086;2022-07-06T23:11:49;14.60;99.90
28069;DHT22;15382;47.578;8.086;2022-07-06T23:21:49;14.60;99.90
28069;DHT22;15382;47.578;8.086;2022-07-06T23:31:50;14.30;99.90
28069;DHT22;15382;47.578;8.086;2022-07-06T23:41:51;14.10;99.90
28069;DHT22;15382;47.578;8.086;2022-07-06T23:51:54;13.80;99.90
